CST,Max TemperatureF,Mean TemperatureF,Min TemperatureF,Max Dew PointF,MeanDew PointF,Min DewpointF,Max Humidity, Mean Humidity, Min Humidity, Max Sea Level PressureIn, Mean Sea Level PressureIn, Min Sea Level PressureIn, Max VisibilityMiles, Mean VisibilityMiles, Min VisibilityMiles, Max Wind SpeedMPH, Mean Wind SpeedMPH, Max Gust SpeedMPH,PrecipitationIn, CloudCover, Events, WindDirDegrees
2011-12-1,52,38,23,30,23,17,82,56,30,30.44,30.27,30.11,10,10,8,16,8,22,0.00,2,,26
2011-12-2,41,31,20,35,26,17,88,82,76,30.49,30.39,30.24,10,8,5,17,8,23,T,5,Rain,116
2011-12-3,54,48,41,52,44,36,96,84,71,30.22,30.02,29.83,10,7,2,22,12,31,0.68,8,Rain,173
2011-12-4,52,40,28,45,28,20,93,81,69,30.37,30.15,29.87,10,9,6,20,9,26,0.00,8,,310
2011-12-5,31,26,21,20,18,16,81,72,63,30.45,30.39,30.34,10,10,8,18,12,24,0.00,8,,357
2011-12-6,28,24,20,23,19,16,92,85,77,30.40,30.31,30.20,10,4,0,16,7,20,0.06,8,Fog-Snow,325
2011-12-7,37,24,10,22,16,7,88,70,52,30.23,30.19,30.13,10,9,7,16,5,23,0.00,2,,246
2011-12-8,37,27,17,28,24,15,92,76,59,30.29,30.24,30.19,10,6,2,8,3,10,0.02,5,Snow,23
2011-12-9,31,21,11,27,16,8,92,70,47,30.57,30.40,30.25,10,8,2,15,6,21,0.01,5,Snow,342
2011-12-10,38,23,7,24,16,4,92,73,54,30.59,30.51,30.38,10,10,9,14,6,20,0.00,0,,208
2011-12-11,44,36,27,32,28,24,92,77,62,30.44,30.38,30.28,10,5,0,13,8,17,0.00,4,Fog,208
2011-12-12,45,39,33,30,26,24,75,60,45,30.36,30.32,30.27,10,10,10,14,6,18,0.00,8,,186
2011-12-13,43,41,38,42,38,29,100,80,60,30.39,30.28,30.14,10,4,1,13,5,16,0.28,8,Rain,174
2011-12-14,58,51,43,56,49,42,100,92,83,30.10,29.89,29.73,10,3,0,20,9,28,1.11,8,Fog-Rain-Thunderstorm,182
2011-12-15,50,39,27,46,29,21,93,77,61,30.40,30.12,29.76,10,9,6,23,12,33,0.00,7,,304
2011-12-16,38,29,20,24,20,17,84,66,48,30.49,30.41,30.36,10,10,10,10,4,14,0.00,1,,299
2011-12-17,45,36,26,28,26,23,85,67,49,30.36,30.32,30.26,10,10,7,15,7,22,0.00,1,,252
2011-12-18,53,39,24,38,31,22,92,70,48,30.30,30.12,29.94,10,10,7,23,9,29,0.00,2,,215
2011-12-19,49,42,34,37,33,28,89,75,60,30.20,30.06,29.92,10,9,2,18,10,22,0.02,6,Snow,316
2011-12-20,36,34,32,36,33,30,100,95,89,30.15,29.94,29.77,6,2,0,18,9,23,0.30,8,Fog-Rain-Snow,40
2011-12-21,45,40,34,36,32,29,100,79,58,29.98,29.81,29.72,10,7,2,17,8,23,0.02,5,Rain,241
2011-12-22,34,31,27,30,26,21,92,84,75,30.41,30.19,29.98,10,6,1,17,10,24,0.01,6,Snow,348
2011-12-23,33,27,21,20,18,16,84,68,51,30.47,30.38,30.29,10,10,9,15,7,21,0.00,3,,237
2011-12-24,48,35,21,27,23,18,92,66,39,30.39,30.33,30.25,10,10,9,14,7,20,0.00,0,,237
2011-12-25,50,36,21,26,23,18,88,64,39,30.43,30.36,30.28,10,10,10,16,7,21,0.00,0,,279
2011-12-26,44,32,20,32,25,16,88,69,49,30.34,30.15,29.89,10,10,7,21,7,28,0.01,4,Rain,192
2011-12-27,44,36,27,32,26,21,96,74,51,30.12,29.95,29.83,10,10,9,23,10,33,0.00,1,,307
2011-12-28,51,36,21,30,25,19,88,64,39,30.12,29.98,29.80,10,10,10,17,6,26,0.00,1,,216
2011-12-29,55,45,35,38,32,27,76,59,41,29.79,29.71,29.61,10,10,10,14,8,22,0.01,3,Rain,222
2011-12-30,49,44,39,40,36,34,82,71,60,29.95,29.68,29.47,10,10,9,31,15,41,0.01,8,,278
2011-12-31,61,45,29,34,30,26,100,64,28,29.95,29.76,29.57,10,10,8,30,13,43,0.00,1,,172